WetterOnline ( http://www.wetteronline.ch )

Wetter aktuell Hannover

Aktuelles Wetter: Alfeld (148m)

6-stündlich | Neueste Meldungen
Ortszeit Temperatur Wetter
Di, 23.05. 14:00 23.0° C wolkig
Di, 23.05. 8:00 12.4° C bedeckt
Di, 23.05. 2:00 10.4° C bewölkt
Mo, 22.05. 20:00 19.2° C wolkenlos
Ortszeit Temperatur Wetter
Di, 23.05. 16:30 23.2° C bewölkt
Di, 23.05. 16:00 23.8° C wolkig
Di, 23.05. 15:30 23.2° C wolkig
Di, 23.05. 15:00 23.1° C bewölkt
Di, 23.05. 14:30 23.2° C wolkig
Di, 23.05. 14:00 23.0° C wolkig
Ortszeit Relative Feuchte Sichtweite
Di, 23.05. 14:00 50% 30 km
Di, 23.05. 8:00 87% 15 km
Di, 23.05. 2:00 91% 20 km
Mo, 22.05. 20:00 53% 45 km
Ortszeit Relative Feuchte Sichtweite
Di, 23.05. 16:30 49% 35 km
Di, 23.05. 16:00 48% 35 km
Di, 23.05. 15:30 49% 22 km
Di, 23.05. 15:00 51% 22 km
Di, 23.05. 14:30 50% 29 km
Di, 23.05. 14:00 50% 30 km
Ortszeit Niederschlagsmenge Niederschlagsart
Di, 23.05. 14:00 0,0 l/m2 in 6 Std. -
Di, 23.05. 8:00 0,0 l/m2 in 12 Std. -
Di, 23.05. 2:00 0,0 l/m2 in 6 Std. -
Mo, 22.05. 20:00 0,0 l/m2 in 12 Std. -
Ortszeit Niederschlagsmenge Niederschlagsart
Di, 23.05. 16:30 keine Meldung -
Di, 23.05. 16:00 0,0 l/m2 in 1 Std. -
Di, 23.05. 15:30 keine Meldung -
Di, 23.05. 15:00 0,0 l/m2 in 1 Std. -
Di, 23.05. 14:30 keine Meldung -
Di, 23.05. 14:00 0,0 l/m2 in 1 Std. -
Ortszeit Stärke Spitze Richtung
km/h Bft. km/h Grad Sektor
Di, 23.05. 14:00 19 3 30 230° SW
Di, 23.05. 8:00 9 2 15 130° SO
Di, 23.05. 2:00 2 1 19 180° S
Mo, 22.05. 20:00 11 2 22 100° O
Ortszeit Stärke Spitze Richtung
km/h Bft. km/h Grad Sektor
Di, 23.05. 16:30 14 3 25 290° W
Di, 23.05. 16:00 11 2 36 260° W
Di, 23.05. 15:30 15 3 28 280° W
Di, 23.05. 15:00 14 3 32 280° W
Di, 23.05. 14:30 13 3 33 280° W
Di, 23.05. 14:00 19 3 30 230° SW
Ortszeit Untergrenze Bedeckung Gattung
total tief tief mittel hoch
Di, 23.05. 14:00 1500 m 6/8 6/8 - - -
Di, 23.05. 8:00 4500 m 8/8 8/8 - - -
Di, 23.05. 2:00 6900 m 7/8 7/8 - - -
Mo, 22.05. 20:00 - 0/8 0/8 - - -
Ortszeit Bedeckungsgrad in Achtel und Wolkenuntergrenze
Di, 23.05. 16:30 3(1500m) 6(2100m) 7(2400m)
Di, 23.05. 16:00 2(1500m) 8(5100m)
Di, 23.05. 15:30 3(1500m) 5(3300m) 7(5700m)
Di, 23.05. 15:00 4(1500m) 6(2100m) 7(6000m)
Di, 23.05. 14:30 1(1500m) 7(6300m)
Di, 23.05. 14:00 1(1500m) 6(2400m) 6(6300m)
Ortszeit Luftdruck NN (hPa) Tendenz (hPa in 3 Std.)
Di, 23.05. 14:00 1015 - 0,3
Di, 23.05. 8:00 1017 - 0,3
Di, 23.05. 2:00 1018 - 0,4
Mo, 22.05. 20:00 1018 - 1,1
Ortszeit Luftdruck NN (hPa) Tendenz (hPa in 3 Std.)
Di, 23.05. 16:30 1015 - 0,1
Di, 23.05. 16:00 1015 - 0,1
Di, 23.05. 15:30 1015 - 0,1
Di, 23.05. 15:00 1015 0,0
Di, 23.05. 14:30 1015 0,0
Di, 23.05. 14:00 1015 - 0,3
Ortszeit Schneehöhe (cm)
Di, 23.05. 14:00 -
Di, 23.05. 8:00 -
Di, 23.05. 2:00 -
Mo, 22.05. 20:00 -
Ortszeit Schneehöhe (cm)
Di, 23.05. 16:30 -
Di, 23.05. 16:00 -
Di, 23.05. 15:30 -
Di, 23.05. 15:00 -
Di, 23.05. 14:30 -
Di, 23.05. 14:00 -
Link zu dieser Seite / Seite empfehlen

Das Wetter in ...